Terminal Aerodrome Forecast
Issued by NWS

Current Version | Previous Version | Text Only | Print | Product List | Glossary Off
Versions: 1 2 3 4 5 6 7 8 9 10 11 12 13 14 15 16 17 18 19

000
FTUS41 KILN 191517 AAA
TAFLCK
TAF AMD
KLCK 191517Z 1915/2012 19010KT 4SM -SHRA BR OVC012
     FM191700 20012G19KT P6SM VCSH OVC015
     FM192000 20012G19KT P6SM VCSH OVC025
     FM200200 19012KT P6SM SCT015 BKN250=

USA.gov is the U.S. government's official web portal to all federal, state and local government web resources and services.